Time;durP1;ratioP1;P1;durP2;ratioP2;P2;SDS_P1;SDS_P2;PMS_P1;PMS_P2;Temp;Humidity;BMP_temperature;BMP_pressure;BME280_temperature;BME280_humidity;BME280_pressure;Samples;Min_cycle;Max_cycle;Signal;HPM_P1;HPM_P2
2021/08/12 00:02:10;;;;;;;6.97;6.28;;;;;;;22.53;66.06;96006.41;5023245;28;20199;-86
2021/08/12 00:04:37;;;;;;;6.45;5.85;;;;;;;22.48;65.97;96015.03;5010515;28;20207;-85
2021/08/12 00:07:09;;;;;;;7.05;5.70;;;;;;;22.45;66.58;96014.69;5009872;28;20234;-86
2021/08/12 00:09:36;;;;;;;6.50;5.82;;;;;;;22.39;66.51;96019.06;5009934;28;20626;-85
2021/08/12 00:12:03;;;;;;;7.18;5.70;;;;;;;22.32;66.97;96011.34;5010616;28;20582;-85
2021/08/12 00:14:31;;;;;;;7.20;6.03;;;;;;;22.30;66.95;96010.81;5010529;28;20716;-85
2021/08/12 00:16:57;;;;;;;7.47;5.80;;;;;;;22.24;67.33;96009.16;5010560;28;20230;-85
2021/08/12 00:19:24;;;;;;;7.28;5.90;;;;;;;22.11;67.99;96013.91;5009915;28;20230;-86
2021/08/12 00:21:51;;;;;;;6.93;5.63;;;;;;;22.07;68.39;96010.97;5010537;28;20199;-85
2021/08/12 00:24:21;;;;;;;7.53;5.68;;;;;;;22.15;68.09;96007.16;5026364;28;20213;-86
2021/08/12 00:26:48;;;;;;;6.35;5.68;;;;;;;22.24;67.61;96011.78;5030264;28;20206;-85
2021/08/12 00:29:17;;;;;;;7.13;5.78;;;;;;;22.18;67.51;96023.22;5029700;28;20222;-86
2021/08/12 00:31:45;;;;;;;6.82;6.20;;;;;;;22.12;68.01;96033.88;5030931;28;20272;-86
2021/08/12 00:34:11;;;;;;;8.07;6.28;;;;;;;22.12;68.27;96028.63;5030296;28;20202;-85
2021/08/12 00:36:38;;;;;;;6.18;5.57;;;;;;;22.07;68.51;96021.47;5030516;28;20228;-86
2021/08/12 00:39:04;;;;;;;6.47;5.88;;;;;;;22.14;67.89;96029.16;5030282;28;20245;-85
2021/08/12 00:41:35;;;;;;;6.45;5.85;;;;;;;22.13;67.81;96024.97;5030436;28;20198;-85
2021/08/12 00:44:02;;;;;;;6.93;5.93;;;;;;;22.09;67.91;96023.84;5029055;28;20268;-85
2021/08/12 00:46:33;;;;;;;7.82;6.03;;;;;;;22.03;67.81;96021.13;5030254;28;20407;-85
2021/08/12 00:49:01;;;;;;;7.00;6.22;;;;;;;21.96;68.71;96011.78;5029776;28;20275;-85
2021/08/12 00:51:29;;;;;;;6.47;5.43;;;;;;;21.91;69.16;96015.16;5029600;28;20198;-85
2021/08/12 00:53:56;;;;;;;9.18;5.82;;;;;;;21.92;68.65;96019.38;5029402;28;20209;-85
2021/08/12 00:56:26;;;;;;;6.50;5.47;;;;;;;21.89;69.47;96026.91;5030069;28;20222;-86
2021/08/12 00:58:53;;;;;;;6.88;5.72;;;;;;;21.82;69.59;96026.25;5029955;28;20584;-86
2021/08/12 01:01:20;;;;;;;7.93;5.80;;;;;;;21.84;69.73;96024.97;5027918;28;20680;-85
2021/08/12 01:03:46;;;;;;;6.47;5.82;;;;;;;21.86;69.74;96020.31;5009246;28;20202;-85
2021/08/12 01:06:18;;;;;;;6.32;5.55;;;;;;;21.86;69.33;96022.91;5009059;28;20230;-86
2021/08/12 01:08:58;;;;;;;8.02;6.10;;;;;;;21.84;69.75;96027.59;5010462;28;20294;-86
2021/08/12 01:11:37;;;;;;;8.55;5.50;;;;;;;21.70;70.91;96024.50;5009486;28;20203;-86
2021/08/12 01:14:16;;;;;;;11.82;6.70;;;;;;;21.75;70.32;96026.38;5009821;28;20207;-86
2021/08/12 01:16:47;;;;;;;7.50;5.97;;;;;;;21.80;70.02;96031.72;5009829;28;20224;-85
2021/08/12 01:19:44;;;;;;;7.55;5.72;;;;;;;21.79;70.28;96034.56;5009967;28;20273;-86
2021/08/12 01:22:23;;;;;;;7.60;5.90;;;;;;;21.79;70.04;96032.75;4996410;28;20218;-86
2021/08/12 01:24:53;;;;;;;8.48;5.80;;;;;;;21.72;69.96;96037.38;5011556;28;20272;-86
2021/08/12 01:27:26;;;;;;;7.07;5.63;;;;;;;21.70;70.10;96029.72;5011774;28;20202;-86
2021/08/12 01:30:07;;;;;;;8.80;6.38;;;;;;;21.65;70.01;96023.59;5011390;28;20238;-85
2021/08/12 01:32:44;;;;;;;9.82;6.25;;;;;;;21.65;70.09;96029.63;5011053;28;20230;-87
2021/08/12 01:35:16;;;;;;;6.13;5.47;;;;;;;21.70;69.75;96032.34;5010060;28;20293;-85
2021/08/12 01:37:48;;;;;;;6.68;5.60;;;;;;;21.71;69.66;96028.69;5009567;28;20226;-85
2021/08/12 01:40:17;;;;;;;6.63;5.88;;;;;;;21.68;70.03;96023.13;5009925;28;20227;-85
2021/08/12 01:42:45;;;;;;;6.05;5.55;;;;;;;21.59;70.23;96022.69;5009707;28;20203;-86
2021/08/12 01:45:15;;;;;;;6.55;5.95;;;;;;;21.61;70.13;96023.25;5009348;28;20965;-86
2021/08/12 01:47:43;;;;;;;7.03;6.10;;;;;;;21.65;70.27;96020.97;5009428;28;20570;-86
2021/08/12 01:50:14;;;;;;;6.50;5.93;;;;;;;21.73;69.90;96027.69;5009743;28;20227;-85
2021/08/12 01:52:42;;;;;;;6.53;5.90;;;;;;;21.75;69.77;96031.63;5009812;28;20199;-85
2021/08/12 01:55:10;;;;;;;8.77;6.15;;;;;;;21.73;69.42;96025.84;5026643;28;20198;-86
2021/08/12 01:57:39;;;;;;;7.90;6.20;;;;;;;21.74;69.23;96030.06;5033526;28;20222;-86
2021/08/12 02:00:07;;;;;;;6.78;6.18;;;;;;;21.74;69.04;96032.69;5023543;28;20221;-86
2021/08/12 02:02:35;;;;;;;6.45;5.80;;;;;;;21.64;68.95;96027.25;5021822;28;20203;-85
2021/08/12 02:05:03;;;;;;;8.35;6.45;;;;;;;21.55;69.63;96036.53;5013015;28;20203;-86
2021/08/12 02:07:31;;;;;;;6.95;6.25;;;;;;;21.52;69.81;96037.00;5013307;28;20198;-85
2021/08/12 02:09:58;;;;;;;6.88;6.22;;;;;;;21.45;70.06;96029.25;5013178;28;20226;-86
2021/08/12 02:12:24;;;;;;;7.97;6.55;;;;;;;21.32;70.29;96030.34;5013016;28;20666;-85
2021/08/12 02:14:50;;;;;;;6.90;6.20;;;;;;;21.24;70.88;96032.50;5012315;28;20581;-85
2021/08/12 02:17:17;;;;;;;9.38;6.70;;;;;;;21.23;70.70;96018.63;5012607;28;20230;-86
2021/08/12 02:19:43;;;;;;;8.80;6.40;;;;;;;21.34;70.27;96020.41;5013082;28;20230;-86
2021/08/12 02:22:15;;;;;;;7.18;6.20;;;;;;;21.38;70.25;96012.88;5012721;28;20213;-85
2021/08/12 02:24:51;;;;;;;8.57;6.40;;;;;;;21.43;69.90;96012.97;5013167;28;20206;-86
2021/08/12 02:27:21;;;;;;;9.02;6.55;;;;;;;21.48;69.28;96010.44;5013229;28;20198;-86
2021/08/12 02:29:49;;;;;;;11.55;6.60;;;;;;;21.43;69.82;96006.94;5012900;28;20710;-85
2021/08/12 02:32:17;;;;;;;6.95;6.25;;;;;;;21.38;69.68;96011.03;5012515;28;20218;-85
2021/08/12 02:34:44;;;;;;;6.82;6.22;;;;;;;21.42;69.19;96011.38;5012251;28;20674;-85
2021/08/12 02:37:14;;;;;;;7.20;6.30;;;;;;;21.42;69.11;96018.44;5012050;28;20246;-86
2021/08/12 02:39:43;;;;;;;6.97;6.15;;;;;;;21.36;69.23;96010.47;5012640;28;20234;-86
2021/08/12 02:42:11;;;;;;;7.40;6.05;;;;;;;21.36;69.09;96018.34;5012366;28;20199;-85
2021/08/12 02:44:40;;;;;;;7.55;6.30;;;;;;;21.31;69.06;96012.22;5012982;28;20221;-85
2021/08/12 02:47:08;;;;;;;9.52;6.50;;;;;;;21.36;68.82;96014.91;5013118;28;20199;-85
2021/08/12 02:49:38;;;;;;;6.93;6.10;;;;;;;21.35;68.97;96010.75;5012017;28;20226;-85
2021/08/12 02:52:07;;;;;;;11.27;6.50;;;;;;;21.30;69.03;96021.13;5011994;28;20206;-86
2021/08/12 02:54:35;;;;;;;6.72;6.10;;;;;;;21.20;69.42;96015.66;5022883;28;20210;-86
2021/08/12 02:57:04;;;;;;;9.38;5.90;;;;;;;21.12;69.45;96010.78;5031721;28;20237;-85
2021/08/12 02:59:31;;;;;;;7.18;6.45;;;;;;;21.04;69.96;96010.09;5031835;28;20230;-85
2021/08/12 03:01:58;;;;;;;7.95;6.97;;;;;;;21.04;69.79;96007.47;5025880;28;20206;-86
2021/08/12 03:04:24;;;;;;;7.93;7.15;;;;;;;21.04;69.61;96007.47;5012032;28;20209;-85
2021/08/12 03:06:56;;;;;;;7.95;7.05;;;;;;;21.02;70.35;96009.53;5010376;28;20230;-86
2021/08/12 03:09:23;;;;;;;7.95;6.47;;;;;;;21.08;69.63;96013.06;5011980;28;20227;-85
2021/08/12 03:11:52;;;;;;;10.25;6.72;;;;;;;21.07;69.59;96021.13;5011598;28;20697;-85
2021/08/12 03:14:20;;;;;;;8.73;6.78;;;;;;;21.05;69.60;96016.13;5011750;28;20198;-85
2021/08/12 03:16:47;;;;;;;7.68;6.57;;;;;;;21.02;69.38;96014.78;5011640;28;20219;-85
2021/08/12 03:19:16;;;;;;;9.60;6.85;;;;;;;20.98;70.06;96012.84;5011813;28;20223;-86
2021/08/12 03:22:01;;;;;;;7.22;6.47;;;;;;;20.93;70.88;96010.13;5012007;28;20210;-86
2021/08/12 03:24:29;;;;;;;10.68;6.47;;;;;;;20.93;70.40;96018.00;5030040;28;20194;-86
2021/08/12 03:26:56;;;;;;;7.93;6.78;;;;;;;20.85;70.60;96016.50;5031743;28;20198;-86
2021/08/12 03:29:24;;;;;;;8.13;6.88;;;;;;;20.89;70.46;96012.41;5031786;28;20336;-86
2021/08/12 03:31:50;;;;;;;7.57;6.82;;;;;;;20.87;70.20;96016.28;5030650;28;20202;-86
2021/08/12 03:34:17;;;;;;;7.80;7.00;;;;;;;20.62;71.56;96011.28;5031505;28;20202;-86
2021/08/12 03:36:43;;;;;;;9.20;7.45;;;;;;;20.56;71.63;96018.25;5030405;28;20229;-86
2021/08/12 03:39:10;;;;;;;9.05;6.65;;;;;;;20.45;72.89;96023.47;5030637;28;20269;-86
2021/08/12 03:41:37;;;;;;;7.70;6.85;;;;;;;20.55;71.64;96028.94;5029976;28;20194;-86
2021/08/12 03:44:03;;;;;;;9.32;6.82;;;;;;;20.59;71.50;96023.00;5030115;28;20285;-86
2021/08/12 03:46:31;;;;;;;7.05;6.25;;;;;;;20.67;71.04;96020.06;5030033;28;20206;-86
2021/08/12 03:48:58;;;;;;;7.47;6.22;;;;;;;20.69;71.02;96025.06;5030763;28;20236;-86
2021/08/12 03:51:24;;;;;;;7.38;6.60;;;;;;;20.74;70.76;96013.91;5030215;28;20199;-86
2021/08/12 03:53:51;;;;;;;7.90;7.10;;;;;;;20.67;71.02;96006.97;5029621;28;20194;-86
2021/08/12 03:56:17;;;;;;;8.27;6.95;;;;;;;20.52;71.64;96016.31;5029737;28;20202;-87
2021/08/12 03:58:44;;;;;;;7.32;6.63;;;;;;;20.59;71.39;96012.53;5029721;28;20237;-86
2021/08/12 04:01:10;;;;;;;7.22;6.53;;;;;;;20.74;70.87;96006.06;5030223;28;20241;-86
2021/08/12 04:03:38;;;;;;;7.60;6.45;;;;;;;20.76;70.75;96014.50;5029968;28;20209;-86
2021/08/12 04:06:04;;;;;;;7.93;7.10;;;;;;;20.77;70.71;96005.63;5029993;28;20225;-86
2021/08/12 04:08:31;;;;;;;7.53;6.72;;;;;;;20.75;70.50;96018.94;5030362;28;20202;-87
2021/08/12 04:10:58;;;;;;;11.50;7.05;;;;;;;20.57;71.92;96016.44;5030400;28;20601;-87
2021/08/12 04:13:24;;;;;;;7.82;6.97;;;;;;;20.56;71.93;96023.50;5030209;28;20210;-86
2021/08/12 04:15:51;;;;;;;7.53;6.75;;;;;;;20.58;71.14;96018.03;5030216;28;20696;-86
2021/08/12 04:18:17;;;;;;;7.93;7.13;;;;;;;20.45;71.71;96021.66;5029539;28;20709;-86
2021/08/12 04:20:46;;;;;;;8.02;6.80;;;;;;;20.39;71.99;96019.16;5029870;28;20229;-87
2021/08/12 04:23:12;;;;;;;7.45;6.78;;;;;;;20.42;71.94;96022.09;5021412;28;20253;-86
2021/08/12 04:25:40;;;;;;;8.88;6.25;;;;;;;20.42;72.18;96016.88;5010490;28;20214;-85
2021/08/12 04:28:07;;;;;;;7.30;6.60;;;;;;;20.46;72.36;96019.84;5009375;28;20195;-86
2021/08/12 04:30:34;;;;;;;8.23;6.78;;;;;;;20.43;72.49;96015.84;5009982;28;20223;-87
2021/08/12 04:33:01;;;;;;;9.95;6.43;;;;;;;20.42;72.47;96024.72;5009916;28;20210;-88
2021/08/12 04:35:28;;;;;;;7.63;6.93;;;;;;;20.48;72.30;96023.03;5010035;28;20209;-87
2021/08/12 04:37:55;;;;;;;7.40;6.70;;;;;;;20.60;71.92;96029.03;5009609;28;20316;-86
2021/08/12 04:40:23;;;;;;;9.88;7.07;;;;;;;20.73;71.60;96020.97;5010075;28;20218;-86
2021/08/12 04:42:52;;;;;;;7.68;6.88;;;;;;;20.84;71.05;96021.97;5009953;28;20203;-87
2021/08/12 04:45:20;;;;;;;7.53;6.72;;;;;;;20.89;70.89;96028.13;5014110;28;20304;-86
2021/08/12 04:47:46;;;;;;;7.43;6.72;;;;;;;20.92;70.68;96032.09;5024876;28;20676;-87
2021/08/12 04:50:14;;;;;;;10.90;6.75;;;;;;;20.93;70.95;96029.25;5029597;28;20222;-86
2021/08/12 04:52:41;;;;;;;8.50;6.82;;;;;;;20.94;71.11;96020.38;5029668;28;20209;-86
2021/08/12 04:55:10;;;;;;;9.15;7.65;;;;;;;20.97;71.03;96024.38;5026566;28;20202;-85
2021/08/12 04:57:37;;;;;;;10.98;6.88;;;;;;;21.00;71.03;96019.44;5028820;28;20229;-85
2021/08/12 05:00:05;;;;;;;7.65;6.95;;;;;;;21.02;71.32;96029.69;5023638;28;20227;-86
2021/08/12 05:02:32;;;;;;;7.60;6.78;;;;;;;21.08;71.12;96027.97;5024267;28;20680;-85
2021/08/12 05:04:58;;;;;;;9.27;7.60;;;;;;;21.16;70.31;96025.81;5027586;28;20193;-85
2021/08/12 05:07:24;;;;;;;10.85;9.73;;;;;;;21.20;70.37;96031.38;5028724;28;20317;-85
2021/08/12 05:09:51;;;;;;;10.88;9.77;;;;;;;21.22;70.17;96029.31;5028426;28;20233;-86
2021/08/12 05:12:20;;;;;;;9.07;7.53;;;;;;;21.21;70.60;96031.16;5029803;28;20211;-86
2021/08/12 05:14:47;;;;;;;8.20;7.40;;;;;;;21.23;70.52;96025.69;5028585;28;20198;-85
2021/08/12 05:17:13;;;;;;;13.27;7.20;;;;;;;21.22;70.97;96034.56;5029050;28;20225;-86
2021/08/12 05:19:43;;;;;;;11.85;7.38;;;;;;;21.27;70.62;96024.19;5030192;28;20214;-86
2021/08/12 05:22:09;;;;;;;10.20;7.20;;;;;;;21.28;70.84;96036.25;5028357;28;20230;-85
2021/08/12 05:24:43;;;;;;;8.20;7.28;;;;;;;21.31;70.60;96030.56;5025539;28;20205;-85
2021/08/12 05:27:10;;;;;;;10.15;7.68;;;;;;;21.31;70.50;96026.13;5029746;28;20245;-85
2021/08/12 05:29:37;;;;;;;11.52;7.70;;;;;;;21.38;70.54;96033.81;5030282;28;20225;-85
2021/08/12 05:32:05;;;;;;;8.50;7.45;;;;;;;21.51;70.17;96032.78;5031002;28;20659;-85
2021/08/12 05:34:31;;;;;;;8.30;7.38;;;;;;;21.58;69.82;96033.41;5024950;28;20213;-85
2021/08/12 05:36:59;;;;;;;9.43;7.95;;;;;;;21.66;69.73;96030.44;5031705;28;20240;-85
2021/08/12 05:39:25;;;;;;;10.32;7.95;;;;;;;21.76;69.59;96030.59;5029023;28;20278;-85
2021/08/12 05:41:52;;;;;;;9.43;8.52;;;;;;;21.81;69.42;96038.56;5033114;28;20243;-86
2021/08/12 05:44:18;;;;;;;13.25;8.32;;;;;;;21.82;69.51;96039.34;5028128;28;20432;-86
2021/08/12 05:46:46;;;;;;;13.60;8.25;;;;;;;21.79;69.99;96034.56;5032264;28;20808;-86
2021/08/12 05:49:15;;;;;;;16.73;9.07;;;;;;;21.90;70.29;96036.38;5036757;28;20570;-86
2021/08/12 05:51:41;;;;;;;10.98;9.82;;;;;;;21.97;70.36;96044.84;5035498;28;20735;-87
2021/08/12 05:54:08;;;;;;;9.70;8.50;;;;;;;22.09;70.59;96047.47;5035558;28;20210;-87
2021/08/12 05:56:35;;;;;;;10.23;8.77;;;;;;;22.13;70.76;96040.72;5029909;28;20198;-87
2021/08/12 05:59:01;;;;;;;12.77;8.50;;;;;;;22.17;70.69;96045.22;5035893;28;20218;-87
2021/08/12 06:01:28;;;;;;;9.05;8.15;;;;;;;22.22;70.67;96044.53;5036039;28;20297;-86
2021/08/12 06:03:56;;;;;;;11.73;8.25;;;;;;;22.26;70.65;96046.44;5033555;28;20205;-87
2021/08/12 06:06:22;;;;;;;9.50;8.50;;;;;;;22.33;70.73;96039.19;5038860;28;20242;-86
2021/08/12 06:08:52;;;;;;;9.20;8.40;;;;;;;22.38;70.42;96046.34;5043053;28;20201;-87
2021/08/12 06:11:18;;;;;;;13.73;8.75;;;;;;;22.41;70.84;96048.50;5030589;28;20229;-88
2021/08/12 06:13:45;;;;;;;9.15;8.25;;;;;;;22.46;70.89;96048.56;5036999;28;20202;-86
2021/08/12 06:19:48;;;;;;;10.52;7.93;;;;;;;22.47;71.69;96050.16;4956181;28;20247;-87
2021/08/12 06:22:23;;;;;;;11.32;8.95;;;;;;;22.53;70.86;96056.28;4961553;28;20286;-88
2021/08/12 06:32:17;;;;;;;;;;;;;;;;;;;;;
2021/08/12 06:35:20;;;;;;;9.63;8.50;;;;;;;22.89;70.23;96057.63;4957443;28;20212;-87
2021/08/12 06:38:29;;;;;;;10.80;8.68;;;;;;;22.91;70.04;96052.91;5026949;28;20225;-85
2021/08/12 06:45:05;;;;;;;;;;;;;;;;;;;;;
2021/08/12 06:50:34;;;;;;;;;;;;;;;;;;;;;
2021/08/12 06:55:59;;;;;;;10.82;9.02;;;;;;;23.37;67.37;96056.91;5023237;28;20216;-86
2021/08/12 06:58:35;;;;;;;10.73;8.57;;;;;;;23.43;67.39;96061.19;5035223;28;20218;-86
2021/08/12 07:06:49;;;;;;;11.43;9.18;;;;;;;23.64;66.64;96064.88;5005177;28;20222;-85
2021/08/12 07:09:30;;;;;;;10.10;8.13;;;;;;;23.71;66.15;96062.84;5039180;22;20285;-88
2021/08/12 07:25:33;;;;;;;8.07;7.35;;;;;;;24.13;63.51;96062.19;4910303;29;20216;-87
2021/08/12 07:28:11;;;;;;;8.23;7.45;;;;;;;24.18;62.95;96057.78;5008922;28;20191;-87
2021/08/12 07:31:30;;;;;;;7.90;7.20;;;;;;;24.23;60.98;96057.03;5009777;28;20344;-87
2021/08/12 07:41:03;;;;;;;8.57;7.43;;;;;;;24.63;60.19;96059.97;4934296;29;20247;-87
2021/08/12 07:46:56;;;;;;;7.18;6.57;;;;;;;24.96;59.71;96063.38;4870437;29;20210;-84
2021/08/12 07:49:41;;;;;;;7.22;6.53;;;;;;;25.05;58.79;96070.53;4890035;29;20257;-85
2021/08/12 07:52:08;;;;;;;8.60;7.70;;;;;;;25.18;58.08;96064.03;4942436;28;20437;-85
2021/08/12 07:54:35;;;;;;;8.18;7.38;;;;;;;25.35;57.68;96059.34;5008857;28;20706;-85
2021/08/12 07:57:03;;;;;;;7.82;7.03;;;;;;;25.52;57.73;96055.72;5010071;28;20202;-85
2021/08/12 07:59:30;;;;;;;7.57;6.88;;;;;;;25.67;56.73;96056.56;5008745;28;20813;-86
2021/08/12 08:02:29;;;;;;;7.68;6.90;;;;;;;25.70;55.61;96060.53;5009217;28;20194;-87
2021/08/12 08:04:55;;;;;;;7.82;7.05;;;;;;;25.73;55.73;96062.66;5009655;28;20219;-89
2021/08/12 08:07:23;;;;;;;10.30;6.75;;;;;;;25.93;55.43;96068.00;5003876;28;20277;-87
2021/08/12 08:09:50;;;;;;;7.75;7.05;;;;;;;26.11;55.55;96064.03;5008686;28;20764;-88
2021/08/12 08:12:18;;;;;;;10.63;7.35;;;;;;;26.25;55.64;96065.09;5008824;28;20598;-88
2021/08/12 08:14:44;;;;;;;15.48;14.07;;;;;;;26.29;55.00;96063.56;5008366;28;20203;-89
2021/08/12 08:17:11;;;;;;;10.23;8.85;;;;;;;26.44;54.00;96066.19;5008095;28;20203;-88
2021/08/12 08:19:37;;;;;;;8.90;8.00;;;;;;;26.25;55.02;96064.31;5008101;28;20348;-88
2021/08/12 08:22:04;;;;;;;7.90;7.10;;;;;;;26.09;54.86;96064.31;5008054;28;20211;-86
2021/08/12 08:24:30;;;;;;;9.48;7.85;;;;;;;25.95;55.48;96065.88;5008738;28;20670;-85
2021/08/12 08:26:59;;;;;;;9.07;6.88;;;;;;;25.84;56.03;96069.53;5008622;28;20202;-86
2021/08/12 08:29:27;;;;;;;8.50;7.70;;;;;;;25.75;56.33;96066.63;5012798;28;20226;-88
2021/08/12 08:31:53;;;;;;;8.93;7.85;;;;;;;25.73;57.15;96066.09;5011626;28;20195;-86
2021/08/12 08:34:19;;;;;;;8.40;7.60;;;;;;;25.85;58.36;96065.84;5012783;28;20551;-86
2021/08/12 08:36:46;;;;;;;7.63;6.82;;;;;;;26.22;57.89;96072.75;5012834;28;20655;-85
2021/08/12 08:39:12;;;;;;;8.23;7.53;;;;;;;26.53;57.59;96069.09;5011492;28;20225;-87
2021/08/12 08:41:39;;;;;;;12.00;7.65;;;;;;;26.78;56.24;96071.69;5009368;28;20201;-86
2021/08/12 08:44:07;;;;;;;7.15;6.55;;;;;;;27.01;55.19;96078.31;5011913;28;20207;-86
2021/08/12 08:46:35;;;;;;;7.35;6.65;;;;;;;27.27;53.67;96065.00;5018847;28;20209;-86
2021/08/12 08:49:06;;;;;;;8.07;6.72;;;;;;;27.44;54.20;96060.19;5011380;28;20210;-87
2021/08/12 08:51:35;;;;;;;9.10;7.53;;;;;;;27.56;54.77;96059.84;5010837;28;20226;-87
2021/08/12 08:54:02;;;;;;;7.80;6.97;;;;;;;27.63;51.55;96060.38;5010220;28;20206;-87
2021/08/12 08:56:28;;;;;;;10.52;7.20;;;;;;;27.73;50.95;96060.31;5011743;28;20210;-87
2021/08/12 08:58:55;;;;;;;10.07;7.28;;;;;;;27.88;51.37;96059.47;5011380;28;20222;-88
2021/08/12 09:01:21;;;;;;;8.60;6.97;;;;;;;27.93;52.13;96054.13;5009355;28;20233;-87
2021/08/12 09:03:50;;;;;;;12.65;7.60;;;;;;;28.11;51.77;96051.59;5008527;28;20210;-87
2021/08/12 09:06:16;;;;;;;8.73;7.65;;;;;;;28.23;50.84;96056.59;5000398;28;20239;-87
2021/08/12 09:08:45;;;;;;;9.05;7.13;;;;;;;28.31;50.05;96044.59;5008834;28;20238;-87
2021/08/12 09:11:11;;;;;;;9.10;7.63;;;;;;;28.45;49.91;96051.66;5007295;28;20238;-88
2021/08/12 09:13:41;;;;;;;8.20;6.88;;;;;;;28.65;49.58;96049.88;5008782;28;20203;-88
2021/08/12 09:16:29;;;;;;;8.27;7.22;;;;;;;28.75;49.73;96047.91;5009338;28;20214;-87
2021/08/12 09:19:21;;;;;;;8.00;6.70;;;;;;;28.83;48.64;96036.75;5009294;28;20712;-87
2021/08/12 09:21:48;;;;;;;7.55;6.72;;;;;;;28.94;48.08;96036.63;5007505;28;20254;-89
2021/08/12 09:24:15;;;;;;;8.23;6.90;;;;;;;29.01;48.97;96037.88;5001115;28;20241;-88
2021/08/12 09:26:43;;;;;;;8.00;6.30;;;;;;;29.13;47.23;96035.59;5002676;28;20205;-87
2021/08/12 09:29:11;;;;;;;10.07;6.40;;;;;;;29.29;46.81;96022.94;5004333;28;20203;-87
2021/08/12 09:31:56;;;;;;;8.43;6.93;;;;;;;29.37;46.67;96029.50;5005370;28;20704;-88
2021/08/12 09:34:25;;;;;;;7.57;6.97;;;;;;;29.52;46.67;96024.00;5001650;28;20203;-86
2021/08/12 09:37:03;;;;;;;11.02;7.18;;;;;;;29.55;46.33;96026.88;5007232;28;20209;-85
2021/08/12 09:39:30;;;;;;;7.40;6.53;;;;;;;29.65;46.83;96025.94;5002203;28;20657;-85
2021/08/12 09:42:00;;;;;;;23.30;21.15;;;;;;;29.85;47.26;96028.31;5006970;28;20209;-88
2021/08/12 09:44:39;;;;;;;10.20;7.35;;;;;;;29.74;45.65;96024.25;5001966;28;20203;-87
2021/08/12 09:47:09;;;;;;;8.98;7.28;;;;;;;29.67;46.29;96028.31;5006442;28;20229;-87
2021/08/12 09:49:40;;;;;;;7.25;6.60;;;;;;;29.57;44.14;96021.31;5008537;28;20728;-88
2021/08/12 09:52:34;;;;;;;7.15;6.45;;;;;;;29.66;43.72;96027.53;5008380;28;20207;-88
2021/08/12 09:55:12;;;;;;;7.82;6.35;;;;;;;29.68;45.08;96024.59;4985681;28;20203;-85
2021/08/12 09:57:45;;;;;;;7.82;7.07;;;;;;;29.71;44.75;96022.16;5007712;28;20285;-84
2021/08/12 10:00:14;;;;;;;7.50;6.57;;;;;;;29.75;44.11;96022.38;5007472;28;20237;-88
2021/08/12 10:02:41;;;;;;;8.27;7.47;;;;;;;29.91;44.50;96029.03;5006872;28;20203;-88
2021/08/12 10:05:11;;;;;;;7.25;6.65;;;;;;;29.88;44.95;96033.06;5001341;28;20290;-88
2021/08/12 10:07:40;;;;;;;7.75;7.05;;;;;;;29.77;44.20;96028.19;5007458;28;20203;-88
2021/08/12 10:10:16;;;;;;;9.13;6.80;;;;;;;29.66;45.05;96024.88;5006463;28;20231;-89
2021/08/12 10:12:46;;;;;;;7.70;6.72;;;;;;;29.46;44.92;96028.59;5007010;28;20297;-85
2021/08/12 10:15:14;;;;;;;8.55;7.63;;;;;;;29.38;45.34;96031.88;5006804;28;20213;-86
2021/08/12 10:17:42;;;;;;;7.43;6.72;;;;;;;29.62;45.61;96028.41;5010148;28;20206;-87
2021/08/12 10:20:13;;;;;;;7.32;6.72;;;;;;;29.89;44.27;96028.53;5004729;28;20285;-88
2021/08/12 10:22:44;;;;;;;9.55;7.45;;;;;;;30.08;44.34;96025.88;5007614;28;20195;-89
2021/08/12 10:25:12;;;;;;;7.68;6.97;;;;;;;30.41;43.42;96024.03;5009809;28;20199;-87
2021/08/12 10:27:41;;;;;;;7.45;6.75;;;;;;;30.55;43.92;96027.56;5009394;28;20623;-88
2021/08/12 10:30:09;;;;;;;8.15;7.10;;;;;;;30.69;43.90;96027.56;5009884;28;21393;-85
2021/08/12 10:32:38;;;;;;;12.13;7.57;;;;;;;30.78;43.59;96017.84;5010482;28;20203;-87
2021/08/12 10:35:05;;;;;;;9.25;7.40;;;;;;;30.82;44.10;96018.81;5010094;28;20241;-88
2021/08/12 10:37:33;;;;;;;7.80;7.20;;;;;;;30.89;43.60;96014.69;5010544;28;20194;-88
2021/08/12 10:40:00;;;;;;;8.32;7.32;;;;;;;30.90;43.31;96005.63;5009569;28;20265;-88
2021/08/12 10:42:27;;;;;;;8.15;7.45;;;;;;;31.04;42.52;96015.47;5009780;28;20203;-89
2021/08/12 10:44:54;;;;;;;8.90;8.07;;;;;;;31.11;42.76;96010.59;5007369;28;20199;-88
2021/08/12 10:47:40;;;;;;;8.52;7.70;;;;;;;31.16;43.34;96010.50;5009846;28;20202;-87
2021/08/12 10:50:30;;;;;;;8.63;7.75;;;;;;;31.19;41.68;96002.69;5007481;28;20316;-85
2021/08/12 10:53:15;;;;;;;9.95;7.57;;;;;;;30.99;41.64;95999.59;5008945;28;20191;-87
2021/08/12 10:56:04;;;;;;;8.73;6.80;;;;;;;31.02;42.57;95999.81;5010238;28;20254;-87
2021/08/12 10:58:50;;;;;;;7.85;7.25;;;;;;;31.01;42.98;96000.09;4999299;28;20210;-88
2021/08/12 11:01:33;;;;;;;8.95;7.22;;;;;;;30.93;41.30;96004.25;5001927;28;20222;-87
2021/08/12 11:04:02;;;;;;;9.20;6.82;;;;;;;30.96;42.31;95995.69;5009206;28;20698;-88
2021/08/12 11:06:47;;;;;;;7.90;7.03;;;;;;;31.02;41.72;95991.81;5009293;28;20234;-87
2021/08/12 11:09:18;;;;;;;7.43;6.75;;;;;;;31.10;41.78;95991.13;5004380;28;20199;-86
2021/08/12 11:11:58;;;;;;;7.65;6.97;;;;;;;31.21;42.61;95989.06;5008612;28;20226;-88
2021/08/12 11:14:53;;;;;;;8.20;7.03;;;;;;;31.34;42.65;95990.16;5004048;28;20206;-87
2021/08/12 11:17:31;;;;;;;7.55;6.85;;;;;;;31.45;41.84;95986.19;5001958;28;20666;-88
2021/08/12 11:19:58;;;;;;;8.10;7.47;;;;;;;31.49;40.93;95989.81;5009360;28;20729;-84
2021/08/12 11:22:39;;;;;;;7.75;7.03;;;;;;;31.57;41.64;95981.13;5009474;28;20272;-87
2021/08/12 11:25:12;;;;;;;7.80;6.88;;;;;;;31.59;41.34;95982.41;5008218;28;20682;-87
2021/08/12 11:27:46;;;;;;;8.05;7.25;;;;;;;31.59;41.85;95987.72;5009059;28;20194;-88
2021/08/12 11:30:47;;;;;;;8.13;7.20;;;;;;;31.53;41.61;95985.50;5008694;28;20207;-88
2021/08/12 11:33:32;;;;;;;8.30;7.50;;;;;;;31.46;41.09;95982.44;5008219;28;20202;-87
2021/08/12 11:36:19;;;;;;;7.50;6.80;;;;;;;31.35;39.97;95983.75;5008701;28;20262;-88
2021/08/12 11:38:53;;;;;;;7.47;6.78;;;;;;;31.24;40.08;95986.63;5008382;28;20238;-88
2021/08/12 11:41:22;;;;;;;7.75;7.05;;;;;;;31.24;40.42;95983.94;5001425;28;20233;-87
2021/08/12 11:43:50;;;;;;;8.05;7.25;;;;;;;31.12;39.16;95980.22;5008449;28;20321;-88
2021/08/12 11:46:17;;;;;;;8.52;7.25;;;;;;;31.19;38.83;95986.72;5008837;28;20602;-89
2021/08/12 11:48:45;;;;;;;7.40;6.80;;;;;;;31.18;39.69;95981.69;5009112;28;20213;-88
2021/08/12 11:51:11;;;;;;;8.00;7.20;;;;;;;31.28;39.09;95976.16;5005786;28;20892;-87
2021/08/12 11:53:44;;;;;;;6.90;6.00;;;;;;;31.39;40.23;95974.06;5005447;28;20213;-88
2021/08/12 11:56:24;;;;;;;6.70;6.07;;;;;;;31.39;38.17;95979.38;5008036;28;20210;-88
2021/08/12 11:58:54;;;;;;;6.88;6.35;;;;;;;31.55;38.00;95975.31;5007700;28;20210;-88
2021/08/12 12:01:22;;;;;;;6.57;5.97;;;;;;;31.74;39.34;95972.53;5007682;28;20313;-88
2021/08/12 12:03:50;;;;;;;6.97;6.35;;;;;;;31.63;37.86;95976.47;5007157;28;20210;-90
2021/08/12 12:06:31;;;;;;;7.22;6.50;;;;;;;31.49;38.46;95969.31;4979468;28;20710;-85
2021/08/12 12:09:31;;;;;;;7.50;6.35;;;;;;;31.66;38.82;95971.38;4999377;28;20214;-89
2021/08/12 12:12:13;;;;;;;7.25;6.65;;;;;;;31.80;38.98;95963.31;5007488;28;20210;-89
2021/08/12 12:14:43;;;;;;;7.40;6.80;;;;;;;31.83;38.62;95960.84;5008143;28;20660;-84
2021/08/12 12:17:17;;;;;;;8.70;8.00;;;;;;;31.85;37.61;95965.88;5007557;28;20310;-85
2021/08/12 12:20:09;;;;;;;8.90;8.10;;;;;;;31.91;37.35;95960.13;5008014;28;20237;-87
2021/08/12 12:22:37;;;;;;;8.30;7.60;;;;;;;31.92;37.66;95963.59;5007479;28;20301;-88
2021/08/12 12:25:06;;;;;;;6.38;5.75;;;;;;;31.88;37.03;95963.41;5007729;28;20199;-88
2021/08/12 12:27:34;;;;;;;6.55;6.03;;;;;;;31.69;36.62;95959.34;5007990;28;20202;-89
2021/08/12 12:30:07;;;;;;;6.60;5.97;;;;;;;31.68;36.87;95961.22;5006213;28;20264;-88
2021/08/12 12:32:34;;;;;;;6.03;5.47;;;;;;;31.76;36.41;95963.13;5002834;28;20206;-89
2021/08/12 12:35:04;;;;;;;7.50;5.70;;;;;;;31.79;37.66;95962.53;5007168;28;20273;-89
2021/08/12 12:37:35;;;;;;;6.32;5.75;;;;;;;31.77;36.14;95956.72;5007639;28;20203;-88
2021/08/12 12:40:05;;;;;;;6.35;5.85;;;;;;;31.78;36.12;95958.28;5006876;28;20238;-88
2021/08/12 12:42:35;;;;;;;6.75;6.10;;;;;;;31.73;36.93;95953.09;5007848;28;20203;-88
2021/08/12 12:45:04;;;;;;;6.20;5.70;;;;;;;31.61;36.80;95952.81;5008613;28;20199;-88